createdAt,value
2022-12-01T00:02:06.917Z,62.31
2022-12-01T00:04:51.879Z,62.25
2022-12-01T00:07:36.804Z,63.74
2022-12-01T00:10:21.754Z,63.32
2022-12-01T00:13:06.641Z,63.27
2022-12-01T00:15:51.553Z,64.10
2022-12-01T00:18:36.429Z,62.94
2022-12-01T00:21:21.308Z,62.89
2022-12-01T00:24:06.127Z,62.50
2022-12-01T00:26:51.158Z,62.99
2022-12-01T00:29:36.080Z,62.68
2022-12-01T00:32:20.995Z,63.46
2022-12-01T00:35:06.005Z,62.40
2022-12-01T00:37:50.882Z,64.37
2022-12-01T00:40:35.831Z,63.92
2022-12-01T00:43:20.653Z,62.73
2022-12-01T00:46:05.775Z,62.37
2022-12-01T00:48:50.728Z,63.08
2022-12-01T00:51:35.719Z,63.28
2022-12-01T00:54:20.626Z,63.66
2022-12-01T00:57:05.749Z,63.46
2022-12-01T00:59:50.989Z,64.44
2022-12-01T01:02:36.148Z,64.16
2022-12-01T01:05:21.239Z,63.79
2022-12-01T01:08:06.156Z,63.03
2022-12-01T01:10:51.027Z,63.40
2022-12-01T01:13:35.825Z,63.90
2022-12-01T01:16:20.784Z,64.59
2022-12-01T01:19:05.561Z,65.57
2022-12-01T01:21:50.405Z,65.08
2022-12-01T01:24:35.458Z,64.79
2022-12-01T01:27:20.330Z,63.92
2022-12-01T01:30:05.240Z,64.96
2022-12-01T01:32:50.149Z,63.79
2022-12-01T01:35:35.057Z,63.78
2022-12-01T01:38:19.929Z,64.52
2022-12-01T01:41:04.949Z,65.02
2022-12-01T01:43:49.832Z,63.12
2022-12-01T01:46:34.807Z,62.97
2022-12-01T01:49:20.188Z,62.95
2022-12-01T01:52:05.140Z,62.52
2022-12-01T01:54:50.049Z,63.11
2022-12-01T01:57:34.971Z,63.33
2022-12-01T02:00:19.859Z,65.24
2022-12-01T02:03:04.725Z,64.75
2022-12-01T02:05:49.717Z,64.34
2022-12-01T02:08:34.625Z,63.21
2022-12-01T02:11:19.394Z,65.15
2022-12-01T02:14:04.426Z,64.30
2022-12-01T02:16:49.380Z,63.70
2022-12-01T02:19:34.249Z,64.31
2022-12-01T02:22:19.112Z,64.81
2022-12-01T02:25:03.956Z,64.16
2022-12-01T02:27:48.833Z,63.99
2022-12-01T02:30:33.683Z,63.53
2022-12-01T02:33:18.623Z,63.29
2022-12-01T02:36:03.525Z,64.48
2022-12-01T02:38:48.434Z,63.67
2022-12-01T02:41:33.373Z,64.18
2022-12-01T02:44:18.321Z,63.28
2022-12-01T02:47:03.158Z,63.36
2022-12-01T02:49:48.546Z,63.37
2022-12-01T02:52:33.976Z,63.69
2022-12-01T02:55:18.945Z,63.82
2022-12-01T02:58:04.084Z,64.21
2022-12-01T03:00:48.884Z,62.91
2022-12-01T03:03:33.956Z,62.54
2022-12-01T03:06:18.779Z,62.79
2022-12-01T03:09:03.634Z,61.89
2022-12-01T03:11:48.404Z,61.99
2022-12-01T03:14:33.361Z,63.04
2022-12-01T03:17:18.136Z,62.20
2022-12-01T03:20:03.042Z,62.20
2022-12-01T03:22:47.930Z,61.79
2022-12-01T03:25:32.861Z,61.40
2022-12-01T03:28:22.096Z,60.46
2022-12-01T03:31:07.751Z,61.38
2022-12-01T03:33:52.616Z,61.72
2022-12-01T03:36:37.531Z,60.88
2022-12-01T03:39:22.368Z,63.15
2022-12-01T03:42:07.281Z,61.25
2022-12-01T03:44:52.120Z,61.35
2022-12-01T03:47:37.065Z,61.21
2022-12-01T03:50:21.973Z,60.21
2022-12-01T03:53:06.857Z,60.71
2022-12-01T03:55:51.714Z,60.75
2022-12-01T03:58:36.671Z,61.18
2022-12-01T04:01:21.614Z,61.13
2022-12-01T04:04:06.559Z,61.64
2022-12-01T04:06:51.563Z,62.46
2022-12-01T04:09:36.483Z,62.29
2022-12-01T04:12:21.539Z,61.21
2022-12-01T04:15:06.504Z,61.13
2022-12-01T04:17:51.420Z,61.33
2022-12-01T04:20:36.474Z,60.11
2022-12-01T04:23:21.338Z,59.78
2022-12-01T04:26:09.992Z,59.94
2022-12-01T04:28:57.856Z,61.27
2022-12-01T04:31:42.740Z,59.94
2022-12-01T04:34:27.563Z,60.14
2022-12-01T04:37:12.482Z,60.09
2022-12-01T04:39:57.373Z,60.50
2022-12-01T04:45:27.066Z,59.95
2022-12-01T04:48:11.992Z,60.89
2022-12-01T04:50:56.917Z,59.03
2022-12-01T04:53:42.116Z,60.11
2022-12-01T04:56:26.946Z,59.13
2022-12-01T04:59:11.761Z,58.87
2022-12-01T05:01:56.632Z,58.65
2022-12-01T05:04:41.572Z,59.33
2022-12-01T05:07:26.521Z,59.26
2022-12-01T05:10:11.325Z,58.90
2022-12-01T05:12:56.360Z,58.56
2022-12-01T05:15:41.245Z,57.94
2022-12-01T05:18:26.291Z,57.79
2022-12-01T05:21:11.329Z,57.74
2022-12-01T05:23:56.242Z,58.56
2022-12-01T05:26:41.318Z,57.39
2022-12-01T05:29:26.188Z,57.66
2022-12-01T05:32:11.111Z,56.75
2022-12-01T05:34:56.057Z,57.56
2022-12-01T05:37:41.294Z,56.88
2022-12-01T05:40:26.115Z,58.24
2022-12-01T05:43:11.087Z,58.11
2022-12-01T05:45:56.055Z,58.06
2022-12-01T05:48:41.445Z,57.56
2022-12-01T05:51:26.215Z,57.34
2022-12-01T05:54:11.152Z,57.80
2022-12-01T05:56:56.265Z,58.24
2022-12-01T05:59:41.085Z,57.46
2022-12-01T06:02:26.204Z,56.83
2022-12-01T06:05:11.059Z,56.68
2022-12-01T06:07:56.004Z,56.26
2022-12-01T06:10:40.756Z,56.04
2022-12-01T06:13:25.692Z,55.44
2022-12-01T06:16:10.595Z,55.58
2022-12-01T06:18:55.514Z,55.62
2022-12-01T06:21:40.379Z,56.30
2022-12-01T06:24:25.173Z,54.98
2022-12-01T06:27:10.205Z,55.29
2022-12-01T06:29:55.154Z,55.49
2022-12-01T06:32:40.294Z,55.01
2022-12-01T06:35:25.242Z,55.66
2022-12-01T06:38:10.598Z,56.03
2022-12-01T06:40:55.996Z,55.56
2022-12-01T06:43:40.910Z,56.36
2022-12-01T06:46:26.081Z,56.00
2022-12-01T06:49:11.299Z,55.11
2022-12-01T06:51:56.304Z,55.67
2022-12-01T06:54:41.225Z,55.84
2022-12-01T06:57:26.655Z,56.13
2022-12-01T07:00:12.033Z,56.83
2022-12-01T07:02:57.463Z,56.29
2022-12-01T07:05:42.293Z,55.58
2022-12-01T07:08:27.145Z,56.14
2022-12-01T07:11:12.069Z,55.50
2022-12-01T07:13:56.939Z,55.16
2022-12-01T07:16:41.840Z,56.14
2022-12-01T07:19:26.564Z,56.10
2022-12-01T07:22:11.322Z,56.25
2022-12-01T07:24:56.313Z,56.88
2022-12-01T07:27:41.233Z,55.43
2022-12-01T07:30:28.637Z,56.25
2022-12-01T07:33:13.598Z,55.94
2022-12-01T07:35:58.819Z,55.65
2022-12-01T07:38:43.804Z,54.56
2022-12-01T07:41:28.538Z,55.39
2022-12-01T07:44:13.640Z,55.03
2022-12-01T07:46:58.453Z,55.25
2022-12-01T07:49:43.499Z,55.32
2022-12-01T07:52:28.377Z,55.67
2022-12-01T07:55:13.242Z,55.45
2022-12-01T07:57:57.946Z,54.64
2022-12-01T08:00:42.955Z,54.90
2022-12-01T08:03:27.781Z,56.28
2022-12-01T08:06:12.635Z,55.30
2022-12-01T08:08:57.698Z,54.87
2022-12-01T08:11:42.440Z,55.08
2022-12-01T08:14:27.381Z,54.07
2022-12-01T08:17:12.210Z,55.24
2022-12-01T08:19:57.122Z,54.31
2022-12-01T08:22:41.968Z,54.16
2022-12-01T08:25:26.960Z,55.22
2022-12-01T08:28:11.893Z,54.47
2022-12-01T08:30:56.988Z,54.99
2022-12-01T08:33:41.862Z,54.77
2022-12-01T08:36:26.676Z,54.06
2022-12-01T08:39:11.705Z,53.52
2022-12-01T08:41:56.489Z,53.24
2022-12-01T08:44:41.433Z,52.60
2022-12-01T08:47:26.666Z,52.72
2022-12-01T08:50:11.546Z,52.51
2022-12-01T08:52:56.493Z,53.12
2022-12-01T08:55:41.302Z,51.70
2022-12-01T08:58:26.276Z,51.93
2022-12-01T09:01:11.148Z,51.79
2022-12-01T09:03:56.257Z,52.13
2022-12-01T09:06:41.109Z,52.09
2022-12-01T09:09:26.072Z,51.51
2022-12-01T09:12:10.832Z,51.80
2022-12-01T09:14:55.913Z,51.66
2022-12-01T09:17:40.708Z,52.06
2022-12-01T09:20:25.536Z,52.42
2022-12-01T09:23:10.431Z,52.61
2022-12-01T09:25:55.271Z,51.42
2022-12-01T09:28:40.269Z,51.02
2022-12-01T09:31:25.273Z,49.71
2022-12-01T09:34:10.184Z,50.61
2022-12-01T09:36:55.018Z,50.27
2022-12-01T09:39:39.924Z,50.41
2022-12-01T09:42:24.723Z,51.22
2022-12-01T09:45:09.556Z,50.80
2022-12-01T09:47:54.439Z,50.98
2022-12-01T09:50:39.232Z,50.92
2022-12-01T09:53:24.178Z,50.46
2022-12-01T09:56:12.925Z,51.50
2022-12-01T09:58:58.087Z,50.16
2022-12-01T10:01:42.952Z,50.35
2022-12-01T10:04:27.824Z,51.28
2022-12-01T10:07:12.736Z,50.21
2022-12-01T10:09:57.478Z,49.33
2022-12-01T10:12:42.500Z,50.61
2022-12-01T10:15:27.369Z,49.47
2022-12-01T10:18:12.349Z,49.29
2022-12-01T10:20:57.331Z,49.03
2022-12-01T10:23:42.088Z,48.79
2022-12-01T10:26:27.159Z,48.67
2022-12-01T10:29:12.025Z,49.88
2022-12-01T10:31:57.203Z,49.88
2022-12-01T10:34:42.388Z,49.12
2022-12-01T10:37:27.458Z,49.50
2022-12-01T10:40:12.415Z,48.69
2022-12-01T10:42:57.478Z,48.73
2022-12-01T10:45:42.443Z,48.86
2022-12-01T10:48:27.957Z,48.37
2022-12-01T10:51:12.920Z,49.69
2022-12-01T10:53:57.916Z,48.71
2022-12-01T10:56:42.878Z,48.89
2022-12-01T10:59:27.688Z,50.17
2022-12-01T11:02:12.879Z,48.91
2022-12-01T11:04:57.952Z,50.26
2022-12-01T11:07:42.927Z,50.35
2022-12-01T11:10:27.769Z,50.38
2022-12-01T11:13:12.668Z,50.25
2022-12-01T11:15:57.675Z,49.97
2022-12-01T11:18:42.776Z,49.92
2022-12-01T11:21:27.608Z,49.12
2022-12-01T11:24:12.662Z,50.63
2022-12-01T11:26:57.950Z,49.33
2022-12-01T11:29:43.121Z,49.98
2022-12-01T11:32:27.844Z,48.83
2022-12-01T11:35:12.709Z,49.26
2022-12-01T11:38:28.189Z,49.97
2022-12-01T11:41:02.924Z,48.96
2022-12-01T11:44:00.813Z,49.41
2022-12-01T11:46:55.781Z,48.92
2022-12-01T11:49:52.409Z,49.68
2022-12-01T11:52:37.480Z,49.88
2022-12-01T11:55:22.381Z,49.65
2022-12-01T11:58:07.613Z,49.06
2022-12-01T12:00:52.490Z,48.72
2022-12-01T12:03:37.437Z,48.11
2022-12-01T12:09:27.229Z,49.04
2022-12-01T12:12:12.381Z,49.19
2022-12-01T12:14:57.022Z,49.50
2022-12-01T12:17:41.962Z,48.57
2022-12-01T12:20:26.760Z,49.39
2022-12-01T12:23:11.719Z,49.89
2022-12-01T12:25:56.506Z,49.04
2022-12-01T12:28:41.451Z,50.19
2022-12-01T12:31:26.397Z,49.86
2022-12-01T12:34:11.721Z,49.07
2022-12-01T12:36:56.767Z,49.22
2022-12-01T12:39:41.720Z,48.51
2022-12-01T12:42:26.617Z,49.74
2022-12-01T12:45:11.386Z,48.63
2022-12-01T12:47:56.414Z,48.29
2022-12-01T12:50:41.167Z,47.87
2022-12-01T12:53:25.949Z,47.91
2022-12-01T12:56:10.964Z,46.79
2022-12-01T12:58:55.703Z,47.33
2022-12-01T13:01:40.906Z,47.21
2022-12-01T13:04:25.751Z,47.46
2022-12-01T13:07:10.781Z,47.33
2022-12-01T13:09:57.481Z,47.65
2022-12-01T13:12:45.514Z,47.24
2022-12-01T13:15:30.403Z,47.09
2022-12-01T13:18:15.161Z,47.08
2022-12-01T13:21:00.020Z,47.55
2022-12-01T13:23:44.925Z,48.72
2022-12-01T13:26:30.076Z,47.83
2022-12-01T13:29:15.067Z,48.55
2022-12-01T13:31:59.957Z,48.58
2022-12-01T13:34:45.105Z,47.93
2022-12-01T13:37:29.880Z,48.54
2022-12-01T13:40:14.841Z,49.72
2022-12-01T13:42:59.517Z,47.95
2022-12-01T13:45:44.297Z,47.89
2022-12-01T13:48:29.204Z,48.56
2022-12-01T13:51:14.329Z,48.53
2022-12-01T13:53:59.191Z,49.58
2022-12-01T13:57:03.682Z,49.62
2022-12-01T13:59:49.073Z,49.33
2022-12-01T14:02:34.426Z,50.42
2022-12-01T14:05:19.832Z,49.66
2022-12-01T14:08:04.858Z,50.00
2022-12-01T14:10:50.045Z,50.07
2022-12-01T14:13:35.040Z,50.85
2022-12-01T14:16:20.132Z,50.43
2022-12-01T14:19:05.065Z,51.77
2022-12-01T14:21:49.903Z,51.65
2022-12-01T14:24:34.768Z,51.29
2022-12-01T14:27:19.735Z,51.69
2022-12-01T14:30:04.706Z,51.82
2022-12-01T14:32:49.699Z,52.09
2022-12-01T14:35:34.562Z,54.09
2022-12-01T14:38:19.621Z,52.82
2022-12-01T14:41:04.522Z,53.92
2022-12-01T14:43:49.422Z,53.51
2022-12-01T14:46:34.392Z,52.72
2022-12-01T14:49:19.289Z,53.28
2022-12-01T14:52:04.614Z,52.81
2022-12-01T14:54:49.752Z,53.27
2022-12-01T14:57:34.979Z,52.22
2022-12-01T15:00:19.880Z,51.89
2022-12-01T15:03:04.925Z,52.20
2022-12-01T15:05:49.851Z,53.27
2022-12-01T15:08:49.311Z,53.57
2022-12-01T15:11:40.002Z,53.45
2022-12-01T15:14:24.847Z,52.63
2022-12-01T15:17:09.908Z,53.50
2022-12-01T15:19:54.836Z,53.08
2022-12-01T15:22:39.793Z,53.33
2022-12-01T15:25:24.671Z,52.90
2022-12-01T15:28:09.480Z,52.90
2022-12-01T15:30:54.373Z,53.18
2022-12-01T15:33:39.155Z,53.94
2022-12-01T15:36:24.098Z,53.45
2022-12-01T15:39:09.132Z,53.10
2022-12-01T15:41:54.129Z,52.44
2022-12-01T15:44:39.505Z,53.17
2022-12-01T15:47:24.329Z,53.28
2022-12-01T15:50:09.496Z,53.29
2022-12-01T15:52:54.282Z,53.15
2022-12-01T15:55:39.236Z,53.69
2022-12-01T15:58:24.084Z,52.96
2022-12-01T16:01:09.199Z,53.79
2022-12-01T16:03:54.047Z,53.50
2022-12-01T16:06:39.006Z,53.39
2022-12-01T16:09:23.967Z,53.23
2022-12-01T16:12:08.775Z,54.13
2022-12-01T16:14:53.837Z,53.57
2022-12-01T16:17:38.582Z,53.66
2022-12-01T16:20:23.573Z,53.86
2022-12-01T16:23:08.574Z,54.44
2022-12-01T16:25:57.801Z,54.70
2022-12-01T16:28:45.603Z,54.53
2022-12-01T16:31:30.448Z,54.11
2022-12-01T16:34:43.980Z,53.70
2022-12-01T16:37:20.967Z,54.16
2022-12-01T16:40:05.987Z,53.88
2022-12-01T16:42:51.066Z,52.86
2022-12-01T16:45:36.080Z,54.16
2022-12-01T16:48:20.995Z,54.45
2022-12-01T16:51:06.541Z,54.93
2022-12-01T16:53:51.479Z,56.67
2022-12-01T16:56:36.424Z,55.42
2022-12-01T16:59:21.229Z,55.37
2022-12-01T17:02:06.191Z,56.41
2022-12-01T17:04:51.340Z,56.10
2022-12-01T17:07:36.479Z,56.05
2022-12-01T17:10:21.354Z,55.86
2022-12-01T17:13:06.329Z,56.00
2022-12-01T17:15:51.244Z,55.43
2022-12-01T17:18:35.971Z,55.09
2022-12-01T17:21:21.124Z,55.92
2022-12-01T17:24:05.916Z,56.11
2022-12-01T17:26:50.757Z,56.62
2022-12-01T17:29:35.660Z,55.97
2022-12-01T17:32:20.632Z,55.59
2022-12-01T17:35:05.632Z,55.67
2022-12-01T17:37:50.456Z,55.36
2022-12-01T17:40:35.455Z,55.28
2022-12-01T17:43:20.246Z,54.92
2022-12-01T17:46:05.217Z,56.06
2022-12-01T17:48:50.202Z,55.44
2022-12-01T17:51:35.100Z,55.58
2022-12-01T17:54:20.203Z,56.31
2022-12-01T17:57:05.072Z,56.03
2022-12-01T17:59:49.932Z,55.54
2022-12-01T18:02:34.845Z,55.93
2022-12-01T18:05:19.678Z,55.54
2022-12-01T18:08:04.481Z,55.72
2022-12-01T18:10:49.571Z,57.16
2022-12-01T18:13:34.452Z,55.46
2022-12-01T18:16:19.310Z,55.99
2022-12-01T18:19:04.297Z,56.42
2022-12-01T18:21:49.240Z,57.07
2022-12-01T18:24:34.100Z,57.21
2022-12-01T18:27:18.898Z,56.83
2022-12-01T18:30:03.816Z,58.12
2022-12-01T18:32:48.694Z,57.72
2022-12-01T18:35:33.517Z,56.96
2022-12-01T18:38:18.453Z,56.54
2022-12-01T18:41:03.401Z,55.83
2022-12-01T18:43:48.301Z,54.50
2022-12-01T18:46:33.171Z,55.35
2022-12-01T18:49:18.010Z,55.71
2022-12-01T18:52:02.813Z,54.67
2022-12-01T18:54:47.743Z,55.00
2022-12-01T18:57:32.946Z,56.28
2022-12-01T19:00:17.965Z,55.92
2022-12-01T19:03:02.795Z,56.66
2022-12-01T19:05:47.714Z,55.13
2022-12-01T19:08:32.726Z,55.00
2022-12-01T19:11:17.613Z,55.17
2022-12-01T19:14:02.488Z,55.25
2022-12-01T19:16:47.533Z,56.75
2022-12-01T19:19:37.190Z,56.52
2022-12-01T19:22:22.953Z,58.24
2022-12-01T19:25:07.649Z,56.69
2022-12-01T19:27:52.711Z,57.77
2022-12-01T19:30:37.617Z,58.22
2022-12-01T19:33:22.548Z,57.05
2022-12-01T19:36:07.366Z,57.08
2022-12-01T19:38:52.141Z,56.58
2022-12-01T19:41:37.134Z,56.14
2022-12-01T19:44:22.103Z,55.71
2022-12-01T19:47:07.070Z,55.78
2022-12-01T19:49:51.948Z,56.13
2022-12-01T19:52:37.060Z,55.47
2022-12-01T19:55:22.285Z,55.36
2022-12-01T19:58:07.333Z,55.94
2022-12-01T20:00:52.163Z,56.56
2022-12-01T20:03:37.064Z,55.94
2022-12-01T20:06:22.015Z,58.40
2022-12-01T20:09:06.885Z,60.20
2022-12-01T20:11:51.892Z,60.63
2022-12-01T20:14:36.722Z,59.36
2022-12-01T20:17:21.706Z,56.41
2022-12-01T20:20:06.621Z,56.29
2022-12-01T20:22:51.500Z,55.42
2022-12-01T20:25:36.468Z,55.75
2022-12-01T20:28:21.233Z,54.84
2022-12-01T20:31:06.526Z,55.25
2022-12-01T20:33:51.487Z,54.98
2022-12-01T20:36:36.477Z,55.94
2022-12-01T20:39:21.718Z,55.44
2022-12-01T20:42:06.602Z,54.83
2022-12-01T20:44:51.860Z,55.94
2022-12-01T20:47:36.968Z,56.60
2022-12-01T20:50:21.978Z,55.48
2022-12-01T20:53:06.859Z,55.92
2022-12-01T20:55:51.861Z,55.58
2022-12-01T20:58:37.992Z,56.13
2022-12-01T21:01:23.391Z,55.52
2022-12-01T21:04:08.143Z,55.01
2022-12-01T21:06:53.085Z,55.05
2022-12-01T21:09:37.961Z,55.95
2022-12-01T21:12:22.797Z,55.50
2022-12-01T21:15:07.648Z,55.54
2022-12-01T21:17:52.669Z,57.59
2022-12-01T21:20:37.650Z,56.18
2022-12-01T21:23:22.510Z,55.56
2022-12-01T21:26:07.437Z,55.94
2022-12-01T21:28:52.422Z,55.26
2022-12-01T21:31:37.860Z,55.15
2022-12-01T21:34:22.902Z,54.84
2022-12-01T21:37:07.647Z,55.16
2022-12-01T21:39:52.556Z,55.68
2022-12-01T21:42:37.422Z,55.58
2022-12-01T21:45:22.361Z,55.42
2022-12-01T21:48:07.153Z,54.72
2022-12-01T21:50:54.102Z,54.56
2022-12-01T21:53:39.241Z,55.29
2022-12-01T21:56:24.141Z,55.27
2022-12-01T21:59:09.026Z,55.14
2022-12-01T22:01:53.999Z,56.33
2022-12-01T22:04:38.928Z,55.68
2022-12-01T22:07:23.997Z,54.91
2022-12-01T22:10:09.358Z,55.14
2022-12-01T22:12:54.346Z,55.61
2022-12-01T22:15:39.254Z,57.73
2022-12-01T22:18:25.053Z,57.15
2022-12-01T22:21:10.062Z,58.30
2022-12-01T22:23:54.988Z,57.73
2022-12-01T22:26:39.886Z,59.49
2022-12-01T22:29:24.941Z,58.75
2022-12-01T22:32:09.886Z,57.42
2022-12-01T22:34:54.869Z,56.83
2022-12-01T22:37:39.948Z,57.48
2022-12-01T22:40:24.740Z,56.14
2022-12-01T22:43:13.908Z,56.78
2022-12-01T22:45:59.576Z,55.84
2022-12-01T22:48:44.768Z,56.69
2022-12-01T22:51:29.722Z,56.32
2022-12-01T22:54:14.605Z,56.33
2022-12-01T22:56:59.589Z,55.69
2022-12-01T22:59:44.501Z,54.54
2022-12-01T23:02:29.457Z,54.43
2022-12-01T23:05:14.350Z,53.56
2022-12-01T23:07:59.196Z,54.20
2022-12-01T23:10:44.595Z,54.26
2022-12-01T23:13:29.261Z,52.66
2022-12-01T23:16:14.407Z,53.26
2022-12-01T23:18:59.787Z,54.18
2022-12-01T23:21:44.625Z,53.98
2022-12-01T23:24:33.725Z,54.40
2022-12-01T23:27:19.392Z,54.12
2022-12-01T23:30:04.322Z,55.23
2022-12-01T23:32:49.184Z,54.45
2022-12-01T23:35:34.098Z,53.77
2022-12-01T23:38:19.310Z,54.32
2022-12-01T23:41:04.125Z,54.01
2022-12-01T23:43:49.034Z,54.30
2022-12-01T23:46:33.996Z,54.04
2022-12-01T23:49:18.881Z,55.04
2022-12-01T23:52:03.695Z,55.71
2022-12-01T23:54:48.997Z,54.38
2022-12-01T23:57:34.796Z,54.37
